CEB6514 RPVD-RPVM
Flight info
| Callsign | CEB6514 |
|---|---|
| Flight time | 0h 22m |
| Altitude | 11000 |
| Route | AROLA3R AROLA DCT LAMOK |
| Aircraft | A20N/M-SDE2E3FGHIRWXY/LB1 |
Departure
| Time | 2026-04-14 04:05 |
|---|---|
| Airport | Sibulan Airport (RPVD) |
Arrival
| Time | 2026-04-14 04:28 |
|---|---|
| Airport | Mactan Cebu International Airport (RPVM) |
| Time | Latitude | Longitude | Altitude | Speed | Heading |
|---|---|---|---|---|---|
| 2026-04-14 03:49 | 9.33321 | 123.29552 | 60 ft | 0 kts | 145° |
| 2026-04-14 03:58 | 9.33324 | 123.29550 | 60 ft | 2 kts | 145° |
| 2026-04-14 03:58 | 9.33338 | 123.29544 | 60 ft | 2 kts | 169° |
| 2026-04-14 03:58 | 9.33353 | 123.29543 | 60 ft | 2 kts | 186° |
| 2026-04-14 03:58 | 9.33364 | 123.29544 | 60 ft | 0 kts | 181° |
| 2026-04-14 03:59 | 9.33374 | 123.29542 | 60 ft | 1 kts | 132° |
| 2026-04-14 03:59 | 9.33377 | 123.29536 | 60 ft | 1 kts | 92° |
| 2026-04-14 03:59 | 9.33377 | 123.29528 | 60 ft | 0 kts | 92° |
| 2026-04-14 04:02 | 9.33375 | 123.29571 | 60 ft | 14 kts | 94° |
| 2026-04-14 04:03 | 9.33370 | 123.29660 | 60 ft | 1 kts | 86° |
| 2026-04-14 04:03 | 9.33376 | 123.29677 | 60 ft | 3 kts | 57° |
| 2026-04-14 04:03 | 9.33382 | 123.29684 | 60 ft | 0 kts | 47° |
| 2026-04-14 04:03 | 9.33383 | 123.29685 | 60 ft | 0 kts | 47° |
| 2026-04-14 04:04 | 9.33394 | 123.29697 | 60 ft | 6 kts | 46° |
| 2026-04-14 04:04 | 9.33437 | 123.29743 | 60 ft | 9 kts | 58° |
| 2026-04-14 04:04 | 9.33442 | 123.29777 | 60 ft | 0 kts | 98° |
| 2026-04-14 04:05 | 9.33438 | 123.29818 | 60 ft | 19 kts | 94° |
| 2026-04-14 04:05 | 9.33413 | 123.30304 | 60 ft | 117 kts | 93° |
| 2026-04-14 04:05 | 9.33351 | 123.31318 | 433 ft | 161 kts | 94° |
| 2026-04-14 04:05 | 9.33192 | 123.32451 | 1430 ft | 165 kts | 95° |
| 2026-04-14 04:06 | 9.33062 | 123.33548 | 2385 ft | 166 kts | 94° |
| 2026-04-14 04:06 | 9.32928 | 123.34757 | 3074 ft | 182 kts | 94° |
| 2026-04-14 04:06 | 9.32939 | 123.36105 | 3674 ft | 202 kts | 69° |
| 2026-04-14 04:06 | 9.33786 | 123.37214 | 4538 ft | 208 kts | 38° |
| 2026-04-14 04:07 | 9.34937 | 123.38074 | 5541 ft | 208 kts | 36° |
| 2026-04-14 04:07 | 9.36092 | 123.38958 | 6290 ft | 209 kts | 38° |
| 2026-04-14 04:07 | 9.37229 | 123.39887 | 7032 ft | 216 kts | 40° |
| 2026-04-14 04:07 | 9.38353 | 123.40854 | 8045 ft | 215 kts | 41° |
| 2026-04-14 04:08 | 9.39475 | 123.41847 | 8976 ft | 217 kts | 41° |
| 2026-04-14 04:08 | 9.40602 | 123.42860 | 9829 ft | 220 kts | 42° |
| 2026-04-14 04:08 | 9.41745 | 123.43895 | 10477 ft | 222 kts | 43° |
| 2026-04-14 04:08 | 9.42904 | 123.44947 | 10869 ft | 223 kts | 43° |
| 2026-04-14 04:09 | 9.44052 | 123.45992 | 10986 ft | 223 kts | 43° |
| 2026-04-14 04:09 | 9.45241 | 123.47026 | 10992 ft | 223 kts | 39° |
| 2026-04-14 04:09 | 9.46486 | 123.47976 | 10985 ft | 223 kts | 37° |
| 2026-04-14 04:09 | 9.47754 | 123.48897 | 10989 ft | 224 kts | 37° |
| 2026-04-14 04:10 | 9.49031 | 123.49822 | 10992 ft | 224 kts | 37° |
| 2026-04-14 04:10 | 9.50312 | 123.50749 | 10985 ft | 223 kts | 37° |
| 2026-04-14 04:10 | 9.51580 | 123.51668 | 10986 ft | 223 kts | 37° |
| 2026-04-14 04:10 | 9.52844 | 123.52584 | 11003 ft | 224 kts | 37° |
| 2026-04-14 04:11 | 9.54118 | 123.53507 | 11004 ft | 224 kts | 37° |
| 2026-04-14 04:11 | 9.55394 | 123.54431 | 10989 ft | 223 kts | 37° |
| 2026-04-14 04:11 | 9.56665 | 123.55353 | 10989 ft | 223 kts | 37° |
| 2026-04-14 04:11 | 9.57937 | 123.56274 | 10997 ft | 223 kts | 37° |
| 2026-04-14 04:12 | 9.59195 | 123.57185 | 10994 ft | 223 kts | 36° |
| 2026-04-14 04:12 | 9.60501 | 123.58048 | 10994 ft | 223 kts | 32° |
| 2026-04-14 04:12 | 9.61860 | 123.58841 | 11002 ft | 223 kts | 31° |
| 2026-04-14 04:12 | 9.63218 | 123.59622 | 11001 ft | 223 kts | 31° |
| 2026-04-14 04:13 | 9.64580 | 123.60403 | 10997 ft | 223 kts | 31° |
| 2026-04-14 04:13 | 9.65942 | 123.61184 | 10994 ft | 224 kts | 31° |
| 2026-04-14 04:13 | 9.67292 | 123.61960 | 10997 ft | 223 kts | 31° |
| 2026-04-14 04:13 | 9.68651 | 123.62740 | 11002 ft | 224 kts | 31° |
| 2026-04-14 04:14 | 9.70026 | 123.63529 | 11004 ft | 224 kts | 31° |
| 2026-04-14 04:14 | 9.71370 | 123.64302 | 11003 ft | 223 kts | 31° |
| 2026-04-14 04:14 | 9.72733 | 123.65085 | 11007 ft | 223 kts | 31° |
| 2026-04-14 04:14 | 9.74101 | 123.65871 | 10993 ft | 223 kts | 31° |
| 2026-04-14 04:15 | 9.75469 | 123.66657 | 10987 ft | 223 kts | 31° |
| 2026-04-14 04:15 | 9.76842 | 123.67446 | 10718 ft | 227 kts | 31° |
| 2026-04-14 04:15 | 9.78226 | 123.68243 | 10423 ft | 226 kts | 31° |
| 2026-04-14 04:15 | 9.79594 | 123.69029 | 10146 ft | 224 kts | 31° |
| 2026-04-14 04:16 | 9.80954 | 123.69811 | 9877 ft | 223 kts | 31° |
| 2026-04-14 04:16 | 9.82293 | 123.70580 | 9610 ft | 220 kts | 31° |
| 2026-04-14 04:16 | 9.83634 | 123.71351 | 9351 ft | 218 kts | 30° |
| 2026-04-14 04:16 | 9.84968 | 123.72118 | 9105 ft | 216 kts | 30° |
| 2026-04-14 04:17 | 9.86290 | 123.72878 | 8850 ft | 215 kts | 30° |
| 2026-04-14 04:17 | 9.87582 | 123.73622 | 8592 ft | 214 kts | 30° |
| 2026-04-14 04:17 | 9.88899 | 123.74379 | 8317 ft | 214 kts | 30° |
| 2026-04-14 04:17 | 9.90241 | 123.75022 | 8045 ft | 214 kts | 21° |
| 2026-04-14 04:18 | 9.91659 | 123.75474 | 7792 ft | 214 kts | 17° |
| 2026-04-14 04:18 | 9.93106 | 123.75880 | 7524 ft | 213 kts | 16° |
| 2026-04-14 04:18 | 9.94533 | 123.76277 | 7257 ft | 212 kts | 16° |
| 2026-04-14 04:18 | 9.95970 | 123.76677 | 6982 ft | 212 kts | 16° |
| 2026-04-14 04:19 | 9.97394 | 123.77073 | 6712 ft | 211 kts | 16° |
| 2026-04-14 04:19 | 9.98820 | 123.77470 | 6447 ft | 210 kts | 16° |
| 2026-04-14 04:19 | 10.00246 | 123.77869 | 6196 ft | 210 kts | 16° |
| 2026-04-14 04:19 | 10.01656 | 123.78264 | 5940 ft | 210 kts | 16° |
| 2026-04-14 04:20 | 10.03087 | 123.78665 | 5675 ft | 209 kts | 16° |
| 2026-04-14 04:20 | 10.04492 | 123.79060 | 5423 ft | 208 kts | 16° |
| 2026-04-14 04:20 | 10.05883 | 123.79449 | 5177 ft | 207 kts | 16° |
| 2026-04-14 04:20 | 10.07270 | 123.79839 | 4947 ft | 205 kts | 16° |
| 2026-04-14 04:21 | 10.08675 | 123.80235 | 4689 ft | 206 kts | 16° |
| 2026-04-14 04:21 | 10.10067 | 123.80625 | 4438 ft | 206 kts | 16° |
| 2026-04-14 04:21 | 10.11449 | 123.81013 | 4186 ft | 205 kts | 16° |
| 2026-04-14 04:21 | 10.12829 | 123.81401 | 3941 ft | 204 kts | 16° |
| 2026-04-14 04:22 | 10.14207 | 123.81787 | 3693 ft | 203 kts | 17° |
| 2026-04-14 04:22 | 10.15484 | 123.82381 | 3500 ft | 195 kts | 34° |
| 2026-04-14 04:22 | 10.16488 | 123.83288 | 3245 ft | 192 kts | 43° |
| 2026-04-14 04:22 | 10.17440 | 123.84251 | 2990 ft | 188 kts | 44° |
| 2026-04-14 04:23 | 10.18330 | 123.85162 | 2930 ft | 171 kts | 44° |
| 2026-04-14 04:23 | 10.19137 | 123.85986 | 2844 ft | 158 kts | 44° |
| 2026-04-14 04:23 | 10.19892 | 123.86752 | 2750 ft | 144 kts | 43° |
| 2026-04-14 04:23 | 10.20580 | 123.87447 | 2677 ft | 135 kts | 43° |
| 2026-04-14 04:24 | 10.21253 | 123.88123 | 2511 ft | 135 kts | 43° |
| 2026-04-14 04:24 | 10.21918 | 123.88791 | 2307 ft | 135 kts | 43° |
| 2026-04-14 04:24 | 10.22588 | 123.89464 | 2116 ft | 134 kts | 43° |
| 2026-04-14 04:24 | 10.23254 | 123.90134 | 1923 ft | 133 kts | 43° |
| 2026-04-14 04:25 | 10.23910 | 123.90794 | 1725 ft | 132 kts | 43° |
| 2026-04-14 04:25 | 10.24559 | 123.91448 | 1556 ft | 124 kts | 43° |
| 2026-04-14 04:25 | 10.25163 | 123.92055 | 1391 ft | 120 kts | 43° |
| 2026-04-14 04:25 | 10.25749 | 123.92647 | 1245 ft | 119 kts | 43° |
| 2026-04-14 04:26 | 10.26330 | 123.93253 | 1068 ft | 118 kts | 45° |
| 2026-04-14 04:26 | 10.26912 | 123.93857 | 890 ft | 117 kts | 42° |
| 2026-04-14 04:26 | 10.27514 | 123.94432 | 737 ft | 116 kts | 43° |
| 2026-04-14 04:26 | 10.28109 | 123.95013 | 581 ft | 117 kts | 43° |
| 2026-04-14 04:27 | 10.28694 | 123.95596 | 422 ft | 115 kts | 46° |
| 2026-04-14 04:27 | 10.29258 | 123.96179 | 279 ft | 114 kts | 45° |
| 2026-04-14 04:28 | 10.31232 | 123.98150 | 36 ft | 9 kts | 45° |
| 2026-04-14 04:28 | 10.31282 | 123.98202 | 35 ft | 11 kts | 46° |
| 2026-04-14 04:29 | 10.31357 | 123.98278 | 35 ft | 16 kts | 44° |
| 2026-04-14 04:29 | 10.31419 | 123.98294 | 36 ft | 8 kts | 314° |
| 2026-04-14 04:29 | 10.31457 | 123.98254 | 38 ft | 6 kts | 315° |
| 2026-04-14 04:29 | 10.31488 | 123.98223 | 39 ft | 5 kts | 316° |
| 2026-04-14 04:30 | 10.31516 | 123.98196 | 40 ft | 5 kts | 315° |
| 2026-04-14 04:30 | 10.31526 | 123.98186 | 40 ft | 6 kts | 315° |
| 2026-04-14 04:30 | 10.31562 | 123.98109 | 42 ft | 5 kts | 248° |
| 2026-04-14 04:31 | 10.31504 | 123.98044 | 45 ft | 0 kts | 224° |
| 2026-04-14 04:31 | 10.31496 | 123.98022 | 45 ft | 3 kts | 289° |
| 2026-04-14 04:32 | 10.31511 | 123.98008 | 46 ft | 1 kts | 326° |
| 2026-04-14 04:32 | 10.31522 | 123.98003 | 46 ft | 3 kts | 332° |
| 2026-04-14 04:32 | 10.31542 | 123.97985 | 48 ft | 2 kts | 313° |
| 2026-04-14 04:32 | 10.31549 | 123.97978 | 48 ft | 0 kts | 315° |